createdAt,value
2023-02-02T00:01:51.986Z,91.79
2023-02-02T00:04:23.970Z,91.57
2023-02-02T00:06:54.710Z,91.53
2023-02-02T00:09:24.434Z,91.62
2023-02-02T00:11:54.118Z,91.51
2023-02-02T00:14:24.040Z,91.91
2023-02-02T00:16:57.314Z,91.45
2023-02-02T00:19:30.237Z,91.23
2023-02-02T00:22:00.678Z,91.96
2023-02-02T00:24:30.364Z,92.04
2023-02-02T00:27:01.919Z,91.26
2023-02-02T00:29:33.848Z,91.73
2023-02-02T00:32:06.132Z,92.04
2023-02-02T00:34:35.803Z,92.11
2023-02-02T00:37:07.041Z,91.80
2023-02-02T00:39:36.913Z,91.55
2023-02-02T00:42:06.856Z,91.34
2023-02-02T00:44:49.269Z,91.05
2023-02-02T00:47:22.586Z,91.52
2023-02-02T00:49:52.281Z,90.87
2023-02-02T00:52:21.945Z,90.49
2023-02-02T00:54:51.585Z,90.76
2023-02-02T00:57:21.238Z,90.71
2023-02-02T00:59:50.898Z,90.58
2023-02-02T01:02:24.357Z,90.44
2023-02-02T01:04:54.181Z,90.79
2023-02-02T01:07:23.825Z,90.93
2023-02-02T01:09:53.492Z,90.87
2023-02-02T01:12:23.289Z,90.90
2023-02-02T01:14:52.939Z,91.11
2023-02-02T01:17:25.245Z,90.50
2023-02-02T01:19:54.870Z,90.96
2023-02-02T01:22:24.630Z,91.52
2023-02-02T01:24:54.429Z,91.13
2023-02-02T01:27:25.354Z,91.22
2023-02-02T01:29:55.353Z,92.22
2023-02-02T01:32:27.806Z,92.24
2023-02-02T01:34:57.551Z,91.65
2023-02-02T01:37:27.351Z,91.81
2023-02-02T01:39:57.013Z,91.83
2023-02-02T01:42:26.981Z,92.13
2023-02-02T01:45:20.508Z,91.74
2023-02-02T01:47:56.406Z,92.41
2023-02-02T01:50:29.781Z,92.46
2023-02-02T01:53:01.639Z,92.11
2023-02-02T01:55:34.045Z,92.24
2023-02-02T01:58:07.123Z,91.97
2023-02-02T02:00:39.231Z,92.29
2023-02-02T02:03:17.830Z,92.20
2023-02-02T02:05:51.287Z,92.35
2023-02-02T02:08:23.663Z,92.72
2023-02-02T02:10:53.539Z,92.83
2023-02-02T02:13:45.963Z,92.57
2023-02-02T02:16:19.881Z,92.78
2023-02-02T02:19:04.462Z,92.87
2023-02-02T02:22:07.781Z,93.01
2023-02-02T02:25:26.509Z,93.71
2023-02-02T02:28:54.386Z,93.64
2023-02-02T02:32:02.081Z,94.41
2023-02-02T02:34:44.158Z,94.83
2023-02-02T02:37:21.445Z,95.00
2023-02-02T02:39:56.779Z,95.63
2023-02-02T02:42:31.025Z,96.17
2023-02-02T02:45:04.723Z,95.91
2023-02-02T02:47:38.704Z,95.89
2023-02-02T02:50:09.533Z,96.36
2023-02-02T02:52:40.643Z,96.75
2023-02-02T02:55:13.547Z,97.53
2023-02-02T02:58:01.603Z,97.76
2023-02-02T03:00:46.001Z,97.66
2023-02-02T03:03:27.769Z,97.64
2023-02-02T03:06:03.289Z,98.24
2023-02-02T03:08:38.507Z,98.86
2023-02-02T03:11:10.217Z,99.37
2023-02-02T03:13:39.989Z,100.00
2023-02-02T03:16:10.307Z,100.00
2023-02-02T03:18:43.131Z,100.00
2023-02-02T03:21:13.852Z,100.00
2023-02-02T03:23:43.841Z,100.00
2023-02-02T03:26:13.567Z,100.00
2023-02-02T03:28:43.587Z,100.00
2023-02-02T03:31:13.342Z,100.00
2023-02-02T03:33:45.762Z,100.00
2023-02-02T03:36:15.381Z,100.00
2023-02-02T03:38:44.990Z,100.00
2023-02-02T03:41:15.264Z,100.00
2023-02-02T03:43:44.879Z,100.00
2023-02-02T03:46:14.580Z,100.00
2023-02-02T03:48:46.774Z,100.00
2023-02-02T03:51:17.973Z,100.00
2023-02-02T03:53:47.813Z,100.00
2023-02-02T03:56:19.396Z,100.00
2023-02-02T03:58:49.207Z,100.00
2023-02-02T04:01:18.912Z,100.00
2023-02-02T04:03:53.003Z,100.00
2023-02-02T04:06:22.720Z,100.00
2023-02-02T04:08:52.523Z,100.00
2023-02-02T04:11:22.367Z,100.00
2023-02-02T04:13:52.058Z,100.00
2023-02-02T04:16:21.759Z,100.00
2023-02-02T04:18:54.171Z,100.00
2023-02-02T04:21:23.864Z,100.00
2023-02-02T04:23:53.533Z,100.00
2023-02-02T04:26:25.629Z,100.00
2023-02-02T04:28:55.565Z,100.00
2023-02-02T04:31:25.303Z,100.00
2023-02-02T04:33:57.564Z,100.00
2023-02-02T04:36:27.846Z,100.00
2023-02-02T04:38:58.023Z,100.00
2023-02-02T04:41:27.689Z,100.00
2023-02-02T04:43:57.432Z,100.00
2023-02-02T04:46:28.676Z,100.00
2023-02-02T04:49:01.033Z,100.00
2023-02-02T04:51:30.699Z,100.00
2023-02-02T04:54:00.321Z,100.00
2023-02-02T04:56:30.491Z,100.00
2023-02-02T04:59:00.363Z,100.00
2023-02-02T05:01:30.956Z,100.00
2023-02-02T05:04:03.406Z,100.00
2023-02-02T05:06:33.007Z,100.00
2023-02-02T05:09:02.711Z,100.00
2023-02-02T05:11:32.672Z,100.00
2023-02-02T05:14:02.301Z,100.00
2023-02-02T05:16:32.049Z,100.00
2023-02-02T05:19:04.509Z,100.00
2023-02-02T05:21:34.273Z,100.00
2023-02-02T05:24:03.988Z,100.00
2023-02-02T05:26:33.699Z,100.00
2023-02-02T05:29:03.555Z,100.00
2023-02-02T05:31:33.327Z,100.00
2023-02-02T05:34:06.970Z,100.00
2023-02-02T05:36:36.728Z,100.00
2023-02-02T05:39:06.502Z,100.00
2023-02-02T05:41:36.178Z,100.00
2023-02-02T05:44:06.154Z,100.00
2023-02-02T05:46:36.033Z,100.00
2023-02-02T05:49:08.292Z,100.00
2023-02-02T05:51:43.540Z,100.00
2023-02-02T05:54:13.214Z,100.00
2023-02-02T05:56:42.875Z,100.00
2023-02-02T05:59:12.519Z,100.00
2023-02-02T06:01:42.983Z,100.00
2023-02-02T06:04:16.412Z,100.00
2023-02-02T06:06:48.109Z,100.00
2023-02-02T06:09:17.833Z,100.00
2023-02-02T06:11:48.216Z,100.00
2023-02-02T06:14:17.988Z,100.00
2023-02-02T06:16:47.644Z,100.00
2023-02-02T06:19:20.070Z,100.00
2023-02-02T06:21:49.734Z,100.00
2023-02-02T06:24:19.436Z,100.00
2023-02-02T06:26:49.203Z,100.00
2023-02-02T06:29:18.992Z,100.00
2023-02-02T06:31:48.742Z,100.00
2023-02-02T06:34:21.175Z,100.00
2023-02-02T06:36:50.880Z,100.00
2023-02-02T06:39:20.562Z,100.00
2023-02-02T06:41:52.128Z,100.00
2023-02-02T06:44:22.010Z,100.00
2023-02-02T06:46:51.721Z,100.00
2023-02-02T06:49:23.904Z,100.00
2023-02-02T06:51:53.591Z,100.00
2023-02-02T06:54:23.191Z,100.00
2023-02-02T06:56:52.792Z,100.00
2023-02-02T06:59:22.537Z,100.00
2023-02-02T07:01:52.526Z,100.00
2023-02-02T07:04:24.814Z,100.00
2023-02-02T07:06:54.422Z,100.00
2023-02-02T07:09:24.112Z,100.00
2023-02-02T07:11:53.780Z,100.00
2023-02-02T07:14:23.385Z,100.00
2023-02-02T07:16:52.973Z,100.00
2023-02-02T07:19:25.239Z,99.38
2023-02-02T07:21:55.221Z,98.86
2023-02-02T07:24:24.877Z,97.83
2023-02-02T07:26:54.516Z,97.07
2023-02-02T07:29:24.174Z,96.06
2023-02-02T07:31:53.854Z,95.19
2023-02-02T07:34:26.265Z,95.46
2023-02-02T07:36:55.854Z,95.00
2023-02-02T07:39:25.460Z,94.13
2023-02-02T07:41:55.045Z,94.31
2023-02-02T07:44:35.870Z,93.55
2023-02-02T07:47:05.503Z,93.22
2023-02-02T07:49:41.819Z,93.30
2023-02-02T07:52:11.440Z,92.88
2023-02-02T07:54:41.119Z,93.76
2023-02-02T07:57:10.939Z,93.01
2023-02-02T07:59:40.617Z,93.50
2023-02-02T08:02:12.318Z,92.91
2023-02-02T08:04:44.576Z,93.60
2023-02-02T08:07:15.097Z,93.57
2023-02-02T08:09:48.742Z,93.60
2023-02-02T08:12:18.385Z,93.87
2023-02-02T08:14:48.059Z,93.55
2023-02-02T08:17:17.793Z,93.59
2023-02-02T08:19:50.069Z,94.23
2023-02-02T08:22:20.467Z,93.92
2023-02-02T08:24:50.195Z,94.70
2023-02-02T08:27:19.915Z,94.63
2023-02-02T08:29:49.625Z,95.26
2023-02-02T08:32:19.327Z,95.91
2023-02-02T08:34:54.649Z,95.36
2023-02-02T08:37:24.849Z,95.79
2023-02-02T08:39:54.519Z,95.63
2023-02-02T08:42:24.239Z,95.54
2023-02-02T08:46:02.510Z,95.32
2023-02-02T08:47:43.666Z,94.95
2023-02-02T08:50:16.651Z,94.72
2023-02-02T08:52:46.423Z,95.73
2023-02-02T08:55:16.094Z,94.94
2023-02-02T08:57:45.768Z,95.66
2023-02-02T09:00:16.948Z,95.57
2023-02-02T09:02:46.621Z,95.10
2023-02-02T09:05:18.921Z,95.56
2023-02-02T09:07:49.428Z,95.24
2023-02-02T09:10:19.749Z,95.45
2023-02-02T09:12:49.390Z,94.45
2023-02-02T09:15:19.125Z,94.69
2023-02-02T09:17:48.944Z,94.58
2023-02-02T09:20:24.325Z,93.65
2023-02-02T09:23:35.644Z,93.77
2023-02-02T09:37:29.899Z,92.55
2023-02-02T09:40:34.155Z,93.11
2023-02-02T09:43:50.149Z,92.51
2023-02-02T09:55:16.644Z,92.33
2023-02-02T10:04:48.699Z,90.54
2023-02-02T10:08:34.675Z,90.99
2023-02-02T10:16:04.598Z,90.51
2023-02-02T10:26:58.174Z,90.35
2023-02-02T10:55:04.887Z,88.09
2023-02-02T10:57:53.788Z,88.82
2023-02-02T11:00:28.475Z,88.86
2023-02-02T11:02:59.044Z,88.80
2023-02-02T11:05:44.055Z,89.24
2023-02-02T11:08:21.933Z,89.80
2023-02-02T11:10:57.359Z,89.87
2023-02-02T11:13:32.442Z,89.75
2023-02-02T11:16:23.292Z,89.24
2023-02-02T11:18:53.466Z,90.53
2023-02-02T11:21:27.056Z,90.48
2023-02-02T11:24:05.561Z,90.31
2023-02-02T11:26:48.244Z,90.14
2023-02-02T11:29:21.947Z,90.69
2023-02-02T11:31:52.229Z,90.58
2023-02-02T11:34:24.392Z,90.94
2023-02-02T11:37:06.125Z,90.00
2023-02-02T11:39:38.437Z,90.33
2023-02-02T11:42:10.777Z,90.70
2023-02-02T11:44:42.497Z,90.43
2023-02-02T11:47:22.642Z,90.05
2023-02-02T11:49:54.612Z,90.05
2023-02-02T11:52:32.247Z,90.42
2023-02-02T11:55:11.911Z,89.90
2023-02-02T11:57:41.536Z,90.85
2023-02-02T12:00:20.525Z,90.52
2023-02-02T12:02:51.437Z,90.53
2023-02-02T12:05:37.870Z,89.56
2023-02-02T12:08:09.234Z,90.06
2023-02-02T12:10:47.529Z,89.90
2023-02-02T12:13:27.816Z,89.99
2023-02-02T12:16:09.366Z,90.22
2023-02-02T12:18:48.047Z,89.90
2023-02-02T12:21:25.004Z,90.30
2023-02-02T12:24:07.452Z,90.38
2023-02-02T12:26:44.269Z,89.83
2023-02-02T12:29:27.002Z,90.42
2023-02-02T12:32:11.384Z,89.87
2023-02-02T12:34:51.774Z,89.89
2023-02-02T12:37:35.645Z,89.77
2023-02-02T12:40:17.551Z,90.30
2023-02-02T12:43:04.379Z,89.44
2023-02-02T12:45:58.525Z,89.64
2023-02-02T12:48:48.466Z,89.22
2023-02-02T12:51:35.412Z,88.85
2023-02-02T12:54:46.176Z,88.85
2023-02-02T12:57:24.915Z,89.04
2023-02-02T13:00:24.174Z,89.02
2023-02-02T13:03:07.959Z,88.21
2023-02-02T13:05:54.481Z,88.18
2023-02-02T13:08:29.153Z,87.86
2023-02-02T13:11:07.094Z,87.46
2023-02-02T13:13:40.732Z,87.91
2023-02-02T13:16:16.763Z,87.95
2023-02-02T13:18:54.709Z,87.61
2023-02-02T13:21:28.735Z,87.81
2023-02-02T13:24:01.575Z,88.43
2023-02-02T13:26:37.791Z,88.03
2023-02-02T13:29:14.607Z,87.67
2023-02-02T13:31:51.086Z,88.14
2023-02-02T13:34:26.022Z,89.09
2023-02-02T13:37:04.467Z,89.09
2023-02-02T13:39:39.948Z,89.62
2023-02-02T13:42:17.258Z,89.62
2023-02-02T13:44:53.363Z,89.58
2023-02-02T13:47:32.087Z,89.27
2023-02-02T13:50:07.412Z,90.21
2023-02-02T13:53:02.184Z,89.49
2023-02-02T13:56:02.609Z,89.05
2023-02-02T13:59:03.456Z,88.70
2023-02-02T14:01:35.026Z,88.70
2023-02-02T14:04:07.609Z,88.18
2023-02-02T14:06:58.145Z,88.06
2023-02-02T14:09:30.955Z,87.89
2023-02-02T14:12:03.991Z,87.86
2023-02-02T14:14:36.522Z,87.82
2023-02-02T14:17:08.527Z,88.79
2023-02-02T14:19:55.461Z,88.89
2023-02-02T14:22:48.443Z,88.26
2023-02-02T14:25:48.669Z,88.20
2023-02-02T14:28:44.077Z,88.78
2023-02-02T14:31:31.468Z,89.18
2023-02-02T14:34:30.086Z,89.37
2023-02-02T14:37:20.668Z,88.93
2023-02-02T14:39:59.403Z,88.33
2023-02-02T14:42:58.079Z,88.10
2023-02-02T14:45:34.270Z,88.32
2023-02-02T14:48:05.774Z,89.09
2023-02-02T14:50:45.188Z,89.55
2023-02-02T14:53:26.647Z,91.12
2023-02-02T14:56:02.143Z,92.50
2023-02-02T14:58:35.028Z,93.69
2023-02-02T15:01:26.306Z,95.47
2023-02-02T15:03:58.428Z,96.70
2023-02-02T15:06:32.630Z,97.65
2023-02-02T15:09:33.840Z,97.92
2023-02-02T15:12:32.252Z,100.00
2023-02-02T15:15:13.088Z,100.00
2023-02-02T15:17:53.508Z,100.00
2023-02-02T15:20:29.228Z,100.00
2023-02-02T15:23:03.810Z,100.00
2023-02-02T15:25:37.085Z,100.00
2023-02-02T15:28:16.782Z,100.00
2023-02-02T15:30:50.883Z,100.00
2023-02-02T15:33:31.982Z,100.00
2023-02-02T15:36:06.340Z,100.00
2023-02-02T15:38:43.179Z,100.00
2023-02-02T15:41:21.287Z,100.00
2023-02-02T15:43:53.684Z,100.00
2023-02-02T15:46:27.913Z,100.00
2023-02-02T15:49:34.424Z,100.00
2023-02-02T15:52:15.251Z,100.00
2023-02-02T15:54:54.413Z,100.00
2023-02-02T15:57:28.855Z,100.00
2023-02-02T16:00:02.048Z,100.00
2023-02-02T16:02:45.438Z,100.00
2023-02-02T16:05:42.594Z,100.00
2023-02-02T16:08:19.128Z,100.00
2023-02-02T16:10:49.771Z,100.00
2023-02-02T16:13:29.115Z,100.00
2023-02-02T16:16:03.765Z,100.00
2023-02-02T16:18:33.931Z,100.00
2023-02-02T16:21:17.818Z,100.00
2023-02-02T16:23:48.182Z,100.00
2023-02-02T16:26:20.304Z,100.00
2023-02-02T16:28:50.544Z,100.00
2023-02-02T16:31:23.130Z,100.00
2023-02-02T16:33:52.987Z,100.00
2023-02-02T16:36:26.364Z,100.00
2023-02-02T16:38:57.908Z,100.00
2023-02-02T16:41:30.165Z,100.00
2023-02-02T16:44:39.769Z,100.00
2023-02-02T16:47:10.893Z,100.00
2023-02-02T16:49:40.747Z,100.00
2023-02-02T16:52:18.086Z,100.00
2023-02-02T16:54:54.708Z,100.00
2023-02-02T16:57:26.622Z,100.00
2023-02-02T17:00:01.893Z,100.00
2023-02-02T17:02:35.415Z,100.00
2023-02-02T17:05:08.830Z,100.00
2023-02-02T17:07:40.446Z,100.00
2023-02-02T17:10:22.990Z,100.00
2023-02-02T17:12:52.961Z,100.00
2023-02-02T17:15:35.672Z,100.00
2023-02-02T17:18:07.672Z,100.00
2023-02-02T17:20:37.396Z,100.00
2023-02-02T17:23:09.991Z,100.00
2023-02-02T17:25:43.758Z,100.00
2023-02-02T17:28:22.910Z,100.00
2023-02-02T17:31:00.734Z,100.00
2023-02-02T17:33:33.162Z,100.00
2023-02-02T17:36:04.793Z,100.00
2023-02-02T17:38:35.247Z,100.00
2023-02-02T17:41:06.107Z,100.00
2023-02-02T17:43:36.341Z,100.00
2023-02-02T17:46:18.767Z,100.00
2023-02-02T17:48:48.810Z,100.00
2023-02-02T17:51:20.079Z,100.00
2023-02-02T17:53:49.894Z,100.00
2023-02-02T17:56:20.874Z,100.00
2023-02-02T17:58:50.572Z,100.00
2023-02-02T18:01:23.396Z,100.00
2023-02-02T18:03:55.472Z,100.00
2023-02-02T18:06:25.222Z,100.00
2023-02-02T18:08:54.980Z,100.00
2023-02-02T18:11:24.953Z,100.00
2023-02-02T18:13:54.600Z,100.00
2023-02-02T18:16:26.954Z,100.00
2023-02-02T18:18:57.476Z,100.00
2023-02-02T18:21:28.258Z,100.00
2023-02-02T18:23:57.972Z,100.00
2023-02-02T18:26:27.813Z,100.00
2023-02-02T18:28:57.516Z,100.00
2023-02-02T18:31:30.220Z,100.00
2023-02-02T18:33:59.982Z,100.00
2023-02-02T18:36:29.694Z,100.00
2023-02-02T18:38:59.807Z,100.00
2023-02-02T18:41:32.452Z,100.00
2023-02-02T18:44:02.226Z,100.00
2023-02-02T18:46:35.241Z,100.00
2023-02-02T18:49:05.060Z,100.00
2023-02-02T18:51:34.780Z,100.00
2023-02-02T18:54:04.943Z,100.00
2023-02-02T18:56:34.744Z,100.00
2023-02-02T18:59:06.144Z,100.00
2023-02-02T19:01:38.513Z,100.00
2023-02-02T19:04:08.769Z,100.00
2023-02-02T19:06:53.637Z,100.00
2023-02-02T19:09:24.811Z,100.00
2023-02-02T19:11:55.591Z,100.00
2023-02-02T19:14:27.345Z,100.00
2023-02-02T19:17:10.975Z,100.00
2023-02-02T19:19:42.903Z,100.00
2023-02-02T19:22:21.118Z,100.00
2023-02-02T19:24:52.018Z,100.00
2023-02-02T19:27:23.966Z,100.00
2023-02-02T19:29:56.913Z,100.00
2023-02-02T19:32:34.896Z,100.00
2023-02-02T19:35:05.930Z,100.00
2023-02-02T19:37:43.382Z,100.00
2023-02-02T19:40:22.311Z,100.00
2023-02-02T19:42:58.128Z,100.00
2023-02-02T19:45:30.242Z,100.00
2023-02-02T19:48:05.828Z,100.00
2023-02-02T19:50:42.078Z,100.00
2023-02-02T19:53:18.989Z,100.00
2023-02-02T19:55:49.227Z,100.00
2023-02-02T19:58:22.684Z,100.00
2023-02-02T20:00:53.945Z,100.00
2023-02-02T20:03:29.266Z,100.00
2023-02-02T20:06:00.767Z,100.00
2023-02-02T20:08:38.715Z,100.00
2023-02-02T20:11:23.957Z,100.00
2023-02-02T20:13:54.627Z,100.00
2023-02-02T20:16:26.433Z,100.00
2023-02-02T20:19:00.562Z,100.00
2023-02-02T20:21:36.888Z,100.00
2023-02-02T20:24:16.515Z,100.00
2023-02-02T20:26:46.640Z,100.00
2023-02-02T20:29:20.511Z,100.00
2023-02-02T20:31:52.014Z,100.00
2023-02-02T20:34:30.642Z,100.00
2023-02-02T20:37:04.071Z,100.00
2023-02-02T20:39:37.840Z,100.00
2023-02-02T20:42:07.810Z,100.00
2023-02-02T20:44:38.041Z,100.00
2023-02-02T20:47:09.203Z,100.00
2023-02-02T20:49:43.265Z,100.00
2023-02-02T20:52:22.228Z,100.00
2023-02-02T20:54:53.529Z,100.00
2023-02-02T20:57:24.096Z,100.00
2023-02-02T20:59:57.848Z,100.00
2023-02-02T21:02:28.630Z,100.00
2023-02-02T21:05:01.435Z,100.00
2023-02-02T21:07:31.433Z,100.00
2023-02-02T21:10:01.086Z,100.00
2023-02-02T21:12:30.722Z,100.00
2023-02-02T21:15:00.860Z,100.00
2023-02-02T21:17:30.501Z,100.00
2023-02-02T21:20:02.761Z,100.00
2023-02-02T21:22:32.486Z,100.00
2023-02-02T21:25:02.097Z,100.00
2023-02-02T21:27:31.781Z,100.00
2023-02-02T21:30:01.450Z,100.00
2023-02-02T21:32:31.077Z,100.00
2023-02-02T21:35:03.358Z,100.00
2023-02-02T21:37:34.434Z,100.00
2023-02-02T21:40:05.109Z,100.00
2023-02-02T21:42:36.265Z,100.00
2023-02-02T21:45:34.888Z,100.00
2023-02-02T21:48:07.690Z,100.00
2023-02-02T21:50:44.387Z,100.00
2023-02-02T21:53:20.520Z,100.00
2023-02-02T21:55:54.910Z,100.00
2023-02-02T21:58:27.796Z,100.00
2023-02-02T22:01:00.969Z,100.00
2023-02-02T22:03:35.675Z,100.00
2023-02-02T22:06:26.714Z,100.00
2023-02-02T22:09:02.025Z,100.00
2023-02-02T22:11:35.785Z,100.00
2023-02-02T22:14:19.662Z,100.00
2023-02-02T22:16:51.663Z,100.00
2023-02-02T22:19:28.722Z,100.00
2023-02-02T22:22:13.564Z,100.00
2023-02-02T22:24:43.780Z,100.00
2023-02-02T22:27:22.349Z,100.00
2023-02-02T22:29:55.486Z,100.00
2023-02-02T22:32:25.123Z,100.00
2023-02-02T22:34:54.746Z,100.00
2023-02-02T22:37:26.954Z,100.00
2023-02-02T22:39:56.555Z,100.00
2023-02-02T22:42:26.353Z,100.00
2023-02-02T22:44:56.002Z,100.00
2023-02-02T22:47:25.744Z,100.00
2023-02-02T22:49:55.406Z,100.00
2023-02-02T22:52:27.657Z,100.00
2023-02-02T22:54:57.277Z,100.00
2023-02-02T22:57:26.884Z,100.00
2023-02-02T22:59:56.524Z,100.00
2023-02-02T23:02:26.309Z,100.00
2023-02-02T23:04:55.970Z,100.00
2023-02-02T23:07:28.205Z,100.00
2023-02-02T23:09:57.851Z,100.00
2023-02-02T23:12:27.887Z,100.00
2023-02-02T23:14:57.510Z,100.00
2023-02-02T23:17:27.457Z,100.00
2023-02-02T23:19:57.124Z,100.00
2023-02-02T23:22:29.364Z,100.00
2023-02-02T23:24:59.068Z,100.00
2023-02-02T23:27:29.141Z,100.00
2023-02-02T23:29:58.842Z,100.00
2023-02-02T23:32:28.576Z,100.00
2023-02-02T23:34:58.203Z,100.00
2023-02-02T23:37:30.467Z,100.00
2023-02-02T23:40:00.236Z,100.00
2023-02-02T23:42:30.062Z,100.00
2023-02-02T23:44:59.724Z,100.00
2023-02-02T23:47:29.580Z,100.00
2023-02-02T23:49:59.297Z,100.00
2023-02-02T23:52:31.656Z,100.00
2023-02-02T23:55:02.805Z,100.00
2023-02-02T23:57:33.837Z,100.00
